Time;durP1;ratioP1;P1;durP2;ratioP2;P2;SDS_P1;SDS_P2;PMS_P1;PMS_P2;Temp;Humidity;BMP_temperature;BMP_pressure;BME280_temperature;BME280_humidity;BME280_pressure;Samples;Min_cycle;Max_cycle;Signal;HPM_P1;HPM_P2
2022/04/04 00:00:56;;;;;;;12.30;8.17;;;;;;;-1.59;100.00;150967.03;5038489;28;20454;-76
2022/04/04 00:03:32;;;;;;;11.60;8.93;;;;;;;-1.60;100.00;150963.19;5037671;28;20933;-76
2022/04/04 00:06:07;;;;;;;10.77;8.30;;;;;;;-1.64;100.00;150954.22;5022537;28;20451;-76
2022/04/04 00:08:43;;;;;;;12.33;8.00;;;;;;;-1.69;100.00;150941.41;5045559;28;20461;-76
2022/04/04 00:11:20;;;;;;;10.67;8.87;;;;;;;-1.69;100.00;150940.13;5042747;28;20814;-76
2022/04/04 00:13:55;;;;;;;11.50;8.57;;;;;;;-1.69;100.00;150941.41;5042226;28;20437;-76
2022/04/04 00:16:32;;;;;;;12.90;10.23;;;;;;;-1.70;100.00;150937.59;5039059;28;20833;-76
2022/04/04 00:19:08;;;;;;;10.20;8.40;;;;;;;-1.72;100.00;150933.72;5046015;28;20443;-76
2022/04/04 00:21:44;;;;;;;11.83;8.77;;;;;;;-1.76;100.00;150923.47;5025862;28;20522;-76
2022/04/04 00:24:20;;;;;;;11.23;8.17;;;;;;;-1.80;100.00;150913.22;5038042;28;20514;-76
2022/04/04 00:26:56;;;;;;;11.77;8.80;;;;;;;-1.81;100.00;150910.69;5034571;28;20449;-76
2022/04/04 00:29:32;;;;;;;10.90;8.57;;;;;;;-1.87;100.00;150895.28;5018381;28;20502;-76
2022/04/04 00:32:09;;;;;;;11.27;8.67;;;;;;;-1.85;100.00;150901.69;5021782;28;20435;-76
2022/04/04 00:34:44;;;;;;;10.90;8.87;;;;;;;-1.83;100.00;150905.56;5021335;28;20449;-76
2022/04/04 00:37:19;;;;;;;14.30;9.67;;;;;;;-1.86;100.00;150897.88;5033287;28;20453;-76
2022/04/04 00:39:55;;;;;;;11.43;9.37;;;;;;;-1.86;100.00;150897.88;5022741;28;20439;-76
2022/04/04 00:42:32;;;;;;;10.80;8.43;;;;;;;-1.89;100.00;150891.47;5035300;28;20542;-76
2022/04/04 00:45:08;;;;;;;15.83;9.47;;;;;;;-1.84;100.00;150902.97;5017955;28;20458;-76
2022/04/04 00:47:43;;;;;;;13.43;9.10;;;;;;;-1.80;100.00;150911.97;5017250;28;20439;-76
2022/04/04 00:50:19;;;;;;;12.37;8.83;;;;;;;-1.78;100.00;150918.38;5027712;28;20475;-76
2022/04/04 00:52:55;;;;;;;9.87;8.00;;;;;;;-1.81;100.00;150910.69;5017021;28;20439;-76
2022/04/04 00:55:30;;;;;;;12.80;8.43;;;;;;;-1.90;100.00;150887.59;5006649;28;20968;-76
2022/04/04 00:58:07;;;;;;;9.97;8.37;;;;;;;-1.96;100.00;150872.25;5039855;28;20795;-76
2022/04/04 01:00:45;;;;;;;12.67;8.20;;;;;;;-2.03;100.00;150855.59;5021576;28;20447;-76
2022/04/04 01:03:20;;;;;;;8.60;7.07;;;;;;;-2.09;100.00;150838.97;5021225;28;20423;-77
2022/04/04 01:05:58;;;;;;;10.10;8.33;;;;;;;-2.11;100.00;150833.81;5036814;28;20867;-76
2022/04/04 01:08:33;;;;;;;10.03;8.30;;;;;;;-2.13;100.00;150828.69;5020586;28;20461;-77
2022/04/04 01:11:09;;;;;;;10.90;8.90;;;;;;;-2.18;100.00;150817.19;5021071;28;20459;-76
2022/04/04 01:13:49;;;;;;;9.80;7.30;;;;;;;-2.15;100.00;150823.59;5036370;28;20419;-76
2022/04/04 01:16:25;;;;;;;9.20;7.83;;;;;;;-2.11;100.00;150833.81;5036573;28;20457;-76
2022/04/04 01:19:00;;;;;;;12.40;8.07;;;;;;;-2.13;100.00;150828.69;5036235;28;20935;-76
2022/04/04 01:21:36;;;;;;;11.87;9.03;;;;;;;-2.14;100.00;150826.13;5059224;28;20453;-76
2022/04/04 01:24:15;;;;;;;9.50;6.90;;;;;;;-2.14;100.00;150827.41;5033786;28;20537;-76
2022/04/04 01:26:53;;;;;;;10.57;7.60;;;;;;;-2.16;100.00;150822.28;5042015;28;20437;-76
2022/04/04 01:29:28;;;;;;;8.97;6.90;;;;;;;-2.17;100.00;150818.47;5024187;28;20474;-76
2022/04/04 01:32:05;;;;;;;9.57;7.67;;;;;;;-2.18;100.00;150815.91;5069741;28;20575;-77
2022/04/04 01:34:40;;;;;;;10.93;8.37;;;;;;;-2.19;100.00;150813.31;5023883;28;20578;-77
2022/04/04 01:37:15;;;;;;;11.37;7.30;;;;;;;-2.22;100.00;150805.63;5056054;28;20432;-76
2022/04/04 01:39:52;;;;;;;9.90;7.20;;;;;;;-2.26;100.00;150796.69;5037482;28;20450;-77
2022/04/04 01:42:28;;;;;;;11.30;7.77;;;;;;;-2.25;100.00;150799.22;5055840;28;20841;-76
2022/04/04 01:45:04;;;;;;;10.83;7.50;;;;;;;-2.29;100.00;150787.72;5036967;28;20937;-76
2022/04/04 01:47:41;;;;;;;10.97;8.40;;;;;;;-2.30;100.00;150785.19;5040027;28;20779;-76
2022/04/04 01:50:16;;;;;;;9.40;7.30;;;;;;;-2.31;100.00;150783.88;5070592;28;20473;-76
2022/04/04 01:53:25;;;;;;;11.07;8.17;;;;;;;-2.27;100.00;150792.81;5040731;28;20789;-77
2022/04/04 01:55:49;;;;;;;9.80;7.10;;;;;;;-2.31;100.00;150783.88;5040528;28;20478;-76
2022/04/04 01:58:25;;;;;;;10.30;7.63;;;;;;;-2.31;100.00;150782.59;5045155;28;20453;-76
2022/04/04 02:01:01;;;;;;;9.57;6.83;;;;;;;-2.31;100.00;150783.88;5020151;28;20442;-77
2022/04/04 02:03:38;;;;;;;12.00;8.80;;;;;;;-2.34;100.00;150774.91;5035482;28;20431;-77
2022/04/04 02:06:14;;;;;;;9.30;7.50;;;;;;;-2.36;100.00;150769.81;5065520;28;20828;-76
2022/04/04 02:08:51;;;;;;;9.50;7.17;;;;;;;-2.39;100.00;150763.41;5063661;28;20454;-76
2022/04/04 02:11:28;;;;;;;10.00;6.60;;;;;;;-2.43;100.00;150751.84;5034586;28;20469;-76
2022/04/04 02:14:04;;;;;;;11.20;8.97;;;;;;;-2.43;100.00;150753.13;5032261;28;20840;-77
2022/04/04 02:16:40;;;;;;;8.40;7.20;;;;;;;-2.49;100.00;150739.03;5035969;28;20485;-76
2022/04/04 02:19:17;;;;;;;8.97;7.53;;;;;;;-2.51;100.00;150732.66;5035075;28;20928;-76
2022/04/04 02:21:53;;;;;;;10.20;8.30;;;;;;;-2.56;100.00;150719.84;5057989;28;20523;-77
2022/04/04 02:24:28;;;;;;;12.37;7.53;;;;;;;-2.58;100.00;150716.03;5045283;28;20525;-76
2022/04/04 02:27:06;;;;;;;10.83;7.60;;;;;;;-2.59;100.00;150713.44;5038182;28;20524;-76
2022/04/04 02:29:41;;;;;;;9.43;7.43;;;;;;;-2.62;100.00;150704.53;5034948;28;20492;-77
2022/04/04 02:32:17;;;;;;;11.27;8.00;;;;;;;-2.61;100.00;150707.06;5052556;28;20440;-76
2022/04/04 02:34:53;;;;;;;9.97;7.27;;;;;;;-2.60;100.00;150710.91;5042601;28;20441;-77
2022/04/04 02:37:28;;;;;;;10.67;8.17;;;;;;;-2.63;100.00;150703.22;5037065;28;20441;-76
2022/04/04 02:40:05;;;;;;;10.00;8.00;;;;;;;-2.67;100.00;150692.97;5054785;28;20434;-76
2022/04/04 02:42:42;;;;;;;9.53;7.87;;;;;;;-2.68;100.00;150690.44;5050294;28;20475;-77
2022/04/04 02:45:18;;;;;;;10.67;7.40;;;;;;;-2.73;100.00;150677.63;5024744;28;20458;-76
2022/04/04 02:47:54;;;;;;;12.37;9.10;;;;;;;-2.72;100.00;150680.16;5037765;28;20452;-76
2022/04/04 02:50:30;;;;;;;12.40;8.73;;;;;;;-2.75;100.00;150672.47;5038752;28;20512;-76
2022/04/04 02:53:05;;;;;;;12.23;8.60;;;;;;;-2.75;100.00;150671.19;5055366;28;20942;-76
2022/04/04 02:58:36;;;;;;;10.20;8.27;;;;;;;-2.78;100.00;150664.78;5053837;28;20441;-76
2022/04/04 03:01:11;;;;;;;12.73;9.13;;;;;;;-2.79;100.00;150662.25;5068006;28;20838;-76
2022/04/04 03:03:47;;;;;;;11.90;8.00;;;;;;;-2.76;100.00;150668.66;5037514;28;20541;-76
2022/04/04 03:06:23;;;;;;;11.30;9.00;;;;;;;-2.79;100.00;150660.97;5042029;28;20445;-76
2022/04/04 03:08:58;;;;;;;11.77;9.13;;;;;;;-2.72;100.00;150680.16;5054571;28;20440;-76
2022/04/04 03:11:34;;;;;;;13.90;9.30;;;;;;;-2.70;100.00;150685.28;5045404;28;20592;-77
2022/04/04 03:14:11;;;;;;;11.27;8.10;;;;;;;-2.68;100.00;150689.16;5049323;28;20441;-77
2022/04/04 03:16:46;;;;;;;10.63;8.73;;;;;;;-2.72;100.00;150680.16;5051459;28;20549;-77
2022/04/04 03:19:22;;;;;;;11.93;8.60;;;;;;;-2.74;100.00;150675.06;5036012;28;20410;-76
2022/04/04 03:21:58;;;;;;;11.17;8.20;;;;;;;-2.69;100.00;150686.56;5019991;28;20940;-76
2022/04/04 03:24:34;;;;;;;11.23;7.70;;;;;;;-2.68;100.00;150689.16;5035677;28;20919;-76
2022/04/04 03:27:13;;;;;;;13.00;9.00;;;;;;;-2.66;100.00;150695.53;5067949;28;20947;-76
2022/04/04 03:29:50;;;;;;;16.20;9.90;;;;;;;-2.68;100.00;150690.44;5034089;28;20482;-76
2022/04/04 03:32:25;;;;;;;12.30;9.83;;;;;;;-2.69;100.00;150687.84;5034081;28;20431;-76
2022/04/04 03:35:01;;;;;;;14.97;10.50;;;;;;;-2.74;100.00;150673.78;5053508;28;20485;-76
2022/04/04 03:37:38;;;;;;;12.50;9.90;;;;;;;-2.78;100.00;150664.78;5049677;28;20454;-77
2022/04/04 03:40:14;;;;;;;15.27;10.17;;;;;;;-2.78;100.00;150664.78;5052988;28;20460;-76
2022/04/04 03:42:51;;;;;;;11.33;9.47;;;;;;;-2.80;100.00;150659.69;5054266;28;20464;-76
2022/04/04 03:45:29;;;;;;;15.97;10.57;;;;;;;-2.80;100.00;150659.69;5038467;28;20453;-76
2022/04/04 03:48:05;;;;;;;13.43;9.80;;;;;;;-2.85;100.00;150646.91;5045135;28;20452;-76
2022/04/04 03:50:41;;;;;;;16.40;11.57;;;;;;;-2.85;100.00;150646.91;5052803;28;20873;-77
2022/04/04 03:53:16;;;;;;;14.40;10.70;;;;;;;-2.87;100.00;150641.78;5053926;28;20523;-76
2022/04/04 03:55:52;;;;;;;12.37;9.60;;;;;;;-2.89;100.00;150636.69;5051536;28;20483;-77
2022/04/04 03:58:27;;;;;;;15.03;11.50;;;;;;;-2.94;100.00;150623.88;5036714;28;20536;-76
2022/04/04 04:01:04;;;;;;;16.17;11.20;;;;;;;-2.91;100.00;150631.53;5043327;28;20548;-76
2022/04/04 04:03:40;;;;;;;13.37;10.33;;;;;;;-2.90;100.00;150634.09;5034450;28;20435;-76
2022/04/04 04:06:16;;;;;;;17.57;11.80;;;;;;;-2.91;100.00;150631.53;5047450;28;20448;-76
2022/04/04 04:08:51;;;;;;;11.60;9.40;;;;;;;-2.92;100.00;150629.00;5029773;28;21856;-76
2022/04/04 04:11:28;;;;;;;12.43;10.33;;;;;;;-2.96;100.00;150617.44;5050361;28;20465;-76
2022/04/04 04:14:03;;;;;;;13.73;9.80;;;;;;;-2.99;100.00;150611.03;5034713;28;20442;-76
2022/04/04 04:16:40;;;;;;;15.50;11.10;;;;;;;-3.00;100.00;150608.50;5032645;28;20483;-76
2022/04/04 04:22:05;;;;;;;12.67;10.00;;;;;;;-2.95;100.00;150621.31;5035765;28;20444;-76
2022/04/04 04:24:41;;;;;;;13.60;10.30;;;;;;;-2.96;100.00;150618.72;5042372;28;20467;-76
2022/04/04 04:27:17;;;;;;;13.50;9.93;;;;;;;-2.96;100.00;150617.44;5018852;28;20456;-77
2022/04/04 04:29:52;;;;;;;13.53;10.37;;;;;;;-2.91;100.00;150631.53;5051953;28;20462;-76
2022/04/04 04:32:30;;;;;;;13.27;9.70;;;;;;;-2.94;100.00;150622.59;5054385;28;20444;-76
2022/04/04 04:35:07;;;;;;;17.17;10.43;;;;;;;-2.95;100.00;150621.31;5036618;28;20449;-76
2022/04/04 04:37:43;;;;;;;13.20;10.30;;;;;;;-2.97;100.00;150616.19;5052936;28;20834;-76
2022/04/04 04:40:19;;;;;;;12.90;9.33;;;;;;;-2.98;100.00;150613.63;5053957;28;20469;-76
2022/04/04 04:42:55;;;;;;;15.23;10.40;;;;;;;-2.98;100.00;150612.34;5024673;28;20453;-76
2022/04/04 04:45:30;;;;;;;12.37;9.80;;;;;;;-2.94;100.00;150623.88;5057580;28;20534;-76
2022/04/04 04:48:07;;;;;;;14.57;9.90;;;;;;;-2.94;100.00;150623.88;5026024;28;20429;-77
2022/04/04 04:50:43;;;;;;;14.47;9.73;;;;;;;-2.97;100.00;150614.91;5031607;28;20464;-76
2022/04/04 04:53:19;;;;;;;14.77;10.03;;;;;;;-3.00;100.00;150608.50;5026729;28;20430;-76
2022/04/04 04:55:54;;;;;;;12.20;9.03;;;;;;;-3.01;100.00;150605.94;5034405;28;20437;-76
2022/04/04 04:58:30;;;;;;;15.33;9.80;;;;;;;-3.04;100.00;150598.25;5037089;28;20452;-76
2022/04/04 05:01:05;;;;;;;13.97;9.80;;;;;;;-3.01;100.00;150605.94;5059049;28;20434;-76
2022/04/04 05:03:42;;;;;;;14.83;10.90;;;;;;;-3.02;100.00;150603.41;5038004;28;20432;-77
2022/04/04 05:06:18;;;;;;;12.37;9.63;;;;;;;-3.01;100.00;150605.94;5068477;28;20451;-80
2022/04/04 05:08:55;;;;;;;11.47;8.90;;;;;;;-3.02;100.00;150603.41;5023172;28;20441;-76
2022/04/04 05:11:31;;;;;;;10.60;9.10;;;;;;;-3.03;100.00;150600.84;5041906;28;20475;-76
2022/04/04 05:14:06;;;;;;;12.63;9.27;;;;;;;-3.04;100.00;150597.00;5069255;28;20528;-76
2022/04/04 05:16:43;;;;;;;13.80;10.40;;;;;;;-3.02;100.00;150602.13;5052765;28;20458;-76
2022/04/04 05:19:22;;;;;;;9.90;8.10;;;;;;;-2.99;100.00;150611.03;5054392;28;20440;-76
2022/04/04 05:21:57;;;;;;;11.70;8.80;;;;;;;-3.02;100.00;150602.13;5037708;28;20476;-76
2022/04/04 05:24:33;;;;;;;14.20;10.40;;;;;;;-3.02;100.00;150603.41;5020801;28;20543;-76
2022/04/04 05:27:09;;;;;;;13.80;9.80;;;;;;;-3.04;100.00;150598.25;5050148;28;20761;-76
2022/04/04 05:29:45;;;;;;;14.07;10.27;;;;;;;-3.00;100.00;150608.50;5037353;28;20464;-76
2022/04/04 05:32:23;;;;;;;13.23;9.13;;;;;;;-3.01;100.00;150605.94;5036709;28;20444;-76
2022/04/04 05:35:00;;;;;;;14.10;8.87;;;;;;;-2.95;100.00;150621.31;5074657;28;20538;-76
2022/04/04 05:37:36;;;;;;;12.30;9.40;;;;;;;-2.90;100.00;150634.09;5031525;28;20455;-76
2022/04/04 05:40:11;;;;;;;12.73;8.80;;;;;;;-2.90;100.00;150634.09;5024560;28;20514;-76
2022/04/04 05:42:47;;;;;;;12.90;9.13;;;;;;;-2.83;100.00;150650.75;5035908;28;20543;-75
2022/04/04 05:45:22;;;;;;;9.97;8.13;;;;;;;-2.74;100.00;150673.78;5017891;28;20561;-76
2022/04/04 05:47:58;;;;;;;14.07;9.43;;;;;;;-2.68;100.00;150689.16;5037320;28;20545;-76
2022/04/04 05:50:35;;;;;;;11.83;8.83;;;;;;;-2.63;100.00;150701.94;5060652;28;20474;-76
2022/04/04 05:53:10;;;;;;;12.93;9.13;;;;;;;-2.60;100.00;150709.63;5054687;28;20517;-76
2022/04/04 05:55:46;;;;;;;13.60;8.57;;;;;;;-2.54;100.00;150726.25;5039941;28;20447;-76
2022/04/04 05:58:22;;;;;;;12.87;8.90;;;;;;;-2.52;100.00;150730.13;5036877;28;20444;-77
2022/04/04 06:00:58;;;;;;;11.13;7.60;;;;;;;-2.38;100.00;150764.69;5020273;28;20441;-77
2022/04/04 06:03:33;;;;;;;10.33;8.37;;;;;;;-2.15;100.00;150823.59;5035492;28;20480;-77
2022/04/04 06:06:10;;;;;;;10.50;9.17;;;;;;;-1.73;100.00;150931.19;5051812;28;20461;-77
2022/04/04 06:08:46;;;;;;;12.20;9.27;;;;;;;-1.48;100.00;150993.94;5049890;28;20860;-76
2022/04/04 06:11:22;;;;;;;16.07;11.17;;;;;;;-1.23;100.00;151058.03;5055045;28;20522;-76
2022/04/04 06:13:59;;;;;;;14.87;10.23;;;;;;;-0.87;100.00;151149.03;5041946;28;20446;-77
2022/04/04 06:16:34;;;;;;;11.13;9.03;;;;;;;-0.66;100.00;151202.88;5048782;28;20866;-76
2022/04/04 06:19:11;;;;;;;13.57;9.20;;;;;;;-0.33;100.00;151287.56;5046123;28;20453;-78
2022/04/04 06:21:48;;;;;;;11.10;8.70;;;;;;;-0.13;99.81;151337.56;5050840;28;20764;-77
2022/04/04 06:24:23;;;;;;;12.30;9.80;;;;;;;-0.04;97.21;151360.69;5028982;28;20446;-78
2022/04/04 06:26:59;;;;;;;13.57;9.30;;;;;;;0.14;96.10;151405.59;5055292;28;20802;-78
2022/04/04 06:29:34;;;;;;;11.43;8.13;;;;;;;0.37;98.46;151464.66;5026879;28;20465;-78
2022/04/04 06:32:11;;;;;;;11.80;9.53;;;;;;;0.44;96.38;151483.91;5043762;28;20478;-78
2022/04/04 06:34:47;;;;;;;10.03;8.20;;;;;;;0.61;95.87;151526.25;5050139;28;20439;-78
2022/04/04 06:37:24;;;;;;;13.50;8.83;;;;;;;0.61;93.34;151527.53;5031830;28;20450;-78
2022/04/04 06:40:00;;;;;;;10.60;8.50;;;;;;;0.80;94.52;151575.03;5036696;28;20873;-78
2022/04/04 06:42:36;;;;;;;10.60;9.13;;;;;;;0.99;94.16;151623.84;5036888;28;20450;-79
2022/04/04 06:45:13;;;;;;;11.90;9.50;;;;;;;1.19;93.50;151675.22;5024623;28;20462;-78
2022/04/04 06:47:49;;;;;;;11.27;8.77;;;;;;;1.35;93.94;151715.03;5035383;28;20442;-78
2022/04/04 06:50:24;;;;;;;9.97;8.33;;;;;;;1.38;91.33;151721.50;5018880;28;20506;-78
2022/04/04 06:53:01;;;;;;;12.30;8.20;;;;;;;1.56;90.60;151769.00;5024146;28;20481;-78
2022/04/04 06:55:38;;;;;;;11.57;9.00;;;;;;;1.73;92.46;151811.41;5030642;28;20443;-78
2022/04/04 06:58:13;;;;;;;12.00;9.07;;;;;;;1.77;89.97;151821.72;5066314;28;20439;-78
2022/04/04 07:00:49;;;;;;;12.20;9.37;;;;;;;1.96;89.05;151869.28;5054993;28;20904;-78
2022/04/04 07:03:25;;;;;;;10.93;9.03;;;;;;;2.07;87.55;151897.53;5053630;28;21246;-78
2022/04/04 07:06:01;;;;;;;12.90;8.37;;;;;;;2.26;88.09;151947.69;5035428;28;20458;-78
2022/04/04 07:08:38;;;;;;;10.73;9.13;;;;;;;2.22;86.59;151937.44;5039306;28;20513;-78
2022/04/04 07:11:13;;;;;;;11.90;8.67;;;;;;;2.29;88.29;151954.13;5038788;28;20471;-78
2022/04/04 07:13:52;;;;;;;11.97;9.37;;;;;;;2.44;85.58;151993.97;5007764;28;20451;-78
2022/04/04 07:16:27;;;;;;;12.53;9.40;;;;;;;2.60;84.68;152032.53;5017896;28;20855;-78
2022/04/04 07:19:03;;;;;;;10.13;8.50;;;;;;;2.66;87.12;152048.00;5009429;28;20459;-78
2022/04/04 07:21:39;;;;;;;12.63;8.67;;;;;;;2.82;82.68;152090.44;5039346;28;20446;-78
2022/04/04 07:24:16;;;;;;;9.50;8.03;;;;;;;2.92;84.84;152114.88;5015265;28;20458;-78
2022/04/04 07:26:53;;;;;;;10.87;8.73;;;;;;;3.06;83.18;152152.22;5031707;28;20476;-79
2022/04/04 07:29:28;;;;;;;9.90;8.30;;;;;;;3.40;85.29;152237.13;5038415;28;20537;-79
2022/04/04 07:32:05;;;;;;;9.93;8.00;;;;;;;3.61;85.08;152292.47;5017439;28;20582;-79
2022/04/04 07:34:40;;;;;;;10.50;8.40;;;;;;;3.85;81.40;152353.00;5033967;28;20454;-79
2022/04/04 07:37:16;;;;;;;9.90;8.10;;;;;;;3.99;82.55;152387.75;5025197;28;20462;-79
2022/04/04 07:39:53;;;;;;;10.43;7.90;;;;;;;4.06;80.51;152405.78;5013742;28;20439;-79
2022/04/04 07:42:29;;;;;;;7.70;6.90;;;;;;;4.27;80.63;152461.16;5028266;28;20504;-79
2022/04/04 07:45:06;;;;;;;18.33;7.90;;;;;;;4.25;80.50;152456.03;5034538;28;20454;-79
2022/04/04 07:47:42;;;;;;;9.13;7.43;;;;;;;4.42;76.81;152498.50;5032555;28;20454;-78
2022/04/04 07:50:18;;;;;;;9.40;7.40;;;;;;;4.43;74.79;152499.78;5017415;28;20442;-78
2022/04/04 07:52:55;;;;;;;11.73;7.40;;;;;;;4.41;74.41;152495.94;5013652;28;20534;-78
2022/04/04 07:55:32;;;;;;;8.83;6.50;;;;;;;4.45;75.86;152506.22;5030436;28;20449;-78
2022/04/04 07:58:08;;;;;;;8.40;7.10;;;;;;;4.59;74.57;152542.31;5030539;28;20450;-78
2022/04/04 08:00:44;;;;;;;10.50;7.00;;;;;;;4.66;76.77;152560.34;5025986;28;20823;-78
2022/04/04 08:03:21;;;;;;;8.57;7.67;;;;;;;4.77;73.97;152587.41;5041017;28;20632;-77
2022/04/04 08:05:57;;;;;;;8.40;6.83;;;;;;;4.91;77.04;152623.50;5030611;28;20442;-77
2022/04/04 08:08:32;;;;;;;9.23;7.43;;;;;;;5.03;74.91;152653.16;5032690;28;20807;-77
2022/04/04 08:11:11;;;;;;;8.33;6.63;;;;;;;5.07;73.50;152663.44;5020936;28;20470;-77
2022/04/04 08:13:46;;;;;;;7.93;6.90;;;;;;;5.15;72.55;152684.06;5018255;28;20415;-77
2022/04/04 08:16:25;;;;;;;8.43;7.63;;;;;;;5.30;74.30;152724.03;5034489;28;20461;-77
2022/04/04 08:19:02;;;;;;;8.00;6.80;;;;;;;5.40;73.27;152748.56;5034296;28;20454;-77
2022/04/04 08:21:37;;;;;;;9.50;7.80;;;;;;;5.40;71.03;152749.81;5045546;28;20442;-77
2022/04/04 08:24:14;;;;;;;7.90;7.07;;;;;;;5.28;72.25;152718.88;5051583;28;20455;-77
2022/04/04 08:26:51;;;;;;;9.23;7.13;;;;;;;5.43;69.39;152756.25;5031412;28;20814;-77
2022/04/04 08:29:28;;;;;;;7.80;7.03;;;;;;;5.53;71.29;152782.06;5017716;28;20458;-77
2022/04/04 08:32:04;;;;;;;8.60;6.57;;;;;;;5.71;74.85;152828.47;5029925;28;20972;-77
2022/04/04 08:34:40;;;;;;;11.43;7.63;;;;;;;5.59;70.66;152797.50;5050767;28;20466;-77
2022/04/04 08:37:15;;;;;;;8.87;6.63;;;;;;;5.71;69.58;152828.47;5032378;28;20458;-77
2022/04/04 08:39:51;;;;;;;7.23;6.50;;;;;;;5.75;67.22;152838.78;5034982;28;20454;-77
2022/04/04 08:42:28;;;;;;;8.00;6.87;;;;;;;5.77;68.21;152843.94;5035213;28;20454;-77
2022/04/04 08:45:06;;;;;;;8.37;7.03;;;;;;;5.73;64.45;152833.63;5051467;28;20822;-77
2022/04/04 08:47:42;;;;;;;8.60;7.13;;;;;;;5.76;69.01;152841.38;5036357;28;20451;-78
2022/04/04 08:50:21;;;;;;;8.57;7.73;;;;;;;5.67;66.22;152818.16;5025032;28;20439;-77
2022/04/04 08:52:57;;;;;;;9.27;7.60;;;;;;;5.71;66.12;152828.47;5036746;28;20810;-77
2022/04/04 08:55:35;;;;;;;7.63;6.83;;;;;;;5.58;65.90;152794.97;5059552;28;20951;-76
2022/04/04 08:58:12;;;;;;;9.07;7.30;;;;;;;5.56;65.39;152789.75;5029196;28;20850;-78
2022/04/04 09:00:47;;;;;;;8.17;7.37;;;;;;;5.50;65.34;152774.31;5034714;28;20455;-78
2022/04/04 09:03:29;;;;;;;8.70;7.83;;;;;;;5.43;66.70;152756.25;5036807;28;20916;-78
2022/04/04 09:06:06;;;;;;;10.93;8.10;;;;;;;5.46;64.99;152765.28;5014227;28;20443;-78
2022/04/04 09:08:47;;;;;;;9.00;7.80;;;;;;;5.61;66.17;152802.72;5022945;28;20536;-78
2022/04/04 09:11:23;;;;;;;7.67;6.80;;;;;;;5.50;65.85;152775.63;5034717;28;20455;-78
2022/04/04 09:14:06;;;;;;;7.80;7.00;;;;;;;5.46;65.29;152764.00;5052228;28;20779;-77
2022/04/04 09:16:55;;;;;;;8.60;7.00;;;;;;;5.33;64.64;152730.47;5021815;28;20459;-77
2022/04/04 09:19:31;;;;;;;8.70;7.80;;;;;;;5.37;68.63;152742.09;5022316;28;20435;-77
2022/04/04 09:22:08;;;;;;;10.83;7.80;;;;;;;5.36;63.46;152738.22;5055970;28;20540;-77
2022/04/04 09:24:55;;;;;;;8.40;7.60;;;;;;;5.26;64.18;152712.44;5038122;28;20449;-77
2022/04/04 09:27:32;;;;;;;9.33;7.90;;;;;;;5.06;61.10;152662.16;5026490;28;20544;-77
2022/04/04 09:30:21;;;;;;;8.03;7.23;;;;;;;4.90;61.22;152620.91;5037516;28;20449;-77
2022/04/04 09:32:57;;;;;;;8.67;7.73;;;;;;;4.93;63.42;152629.94;5029986;28;20482;-77
2022/04/04 09:35:33;;;;;;;8.70;7.80;;;;;;;4.87;63.23;152614.47;5037762;28;20446;-77
2022/04/04 09:38:14;;;;;;;7.93;7.13;;;;;;;4.98;61.74;152640.28;5047981;28;20449;-77
2022/04/04 09:40:50;;;;;;;11.97;8.87;;;;;;;4.88;62.71;152617.06;5052692;28;20434;-76
2022/04/04 09:43:26;;;;;;;8.80;7.90;;;;;;;5.01;60.65;152649.25;5035198;28;20446;-77
2022/04/04 09:46:11;;;;;;;9.10;8.03;;;;;;;4.63;61.02;152551.34;5060527;28;21020;-77
2022/04/04 09:49:08;;;;;;;8.13;6.53;;;;;;;4.56;62.85;152534.59;5031914;28;20458;-77
2022/04/04 09:51:48;;;;;;;7.97;6.80;;;;;;;4.45;62.46;152506.22;5039997;28;20783;-75
2022/04/04 09:54:26;;;;;;;9.43;8.43;;;;;;;4.45;66.93;152506.22;5035095;28;20456;-76
2022/04/04 09:57:13;;;;;;;9.60;7.37;;;;;;;4.37;65.05;152485.63;5043056;28;20783;-76
2022/04/04 09:59:51;;;;;;;8.93;8.13;;;;;;;4.32;66.54;152472.75;5059150;28;20839;-76
2022/04/04 10:02:28;;;;;;;8.27;7.47;;;;;;;4.26;65.80;152458.56;5042597;28;20446;-76
2022/04/04 10:05:04;;;;;;;8.17;7.00;;;;;;;4.31;64.73;152470.19;5064561;28;20442;-76
2022/04/04 10:07:40;;;;;;;14.93;7.80;;;;;;;4.25;65.01;152454.72;5032982;28;20512;-76
2022/04/04 10:10:16;;;;;;;8.83;7.60;;;;;;;4.25;64.06;152454.72;5048969;28;20439;-75
2022/04/04 10:12:52;;;;;;;9.97;8.20;;;;;;;4.29;65.41;152465.00;5040161;28;21016;-76
2022/04/04 10:15:28;;;;;;;8.20;7.40;;;;;;;4.30;64.10;152467.59;5047198;28;20529;-75
2022/04/04 10:18:07;;;;;;;8.93;8.00;;;;;;;4.26;72.02;152457.31;5059240;28;20787;-75
2022/04/04 10:20:43;;;;;;;9.07;8.17;;;;;;;4.21;65.78;152445.69;5027188;28;20442;-75
2022/04/04 10:23:18;;;;;;;8.60;7.53;;;;;;;4.34;66.16;152476.63;5033844;28;20981;-75
2022/04/04 10:25:55;;;;;;;8.83;7.80;;;;;;;4.41;68.85;152494.66;5044489;28;20450;-75
2022/04/04 10:28:31;;;;;;;8.40;7.57;;;;;;;4.31;69.34;152470.19;5047132;28;20554;-75
2022/04/04 10:31:15;;;;;;;8.57;7.43;;;;;;;4.28;68.34;152462.47;5042754;28;20612;-76
2022/04/04 10:33:53;;;;;;;10.03;8.33;;;;;;;4.32;70.78;152472.75;5060123;28;20517;-76
2022/04/04 10:36:28;;;;;;;8.43;7.53;;;;;;;4.39;73.21;152489.50;5046357;28;20438;-76
2022/04/04 10:39:04;;;;;;;9.23;8.23;;;;;;;4.43;68.45;152501.09;5031302;28;20434;-76
2022/04/04 10:41:39;;;;;;;9.00;7.50;;;;;;;4.41;70.42;152494.66;5042037;28;20439;-76
2022/04/04 10:44:20;;;;;;;8.33;7.53;;;;;;;4.47;69.68;152510.13;5027537;28;20952;-76
2022/04/04 10:47:02;;;;;;;9.50;8.50;;;;;;;4.46;66.96;152508.81;5031514;28;20447;-75
2022/04/04 10:49:45;;;;;;;9.23;8.00;;;;;;;4.57;65.33;152537.19;5041851;28;20446;-75
2022/04/04 10:52:20;;;;;;;9.93;8.10;;;;;;;4.67;66.59;152562.94;5043411;28;20861;-75
2022/04/04 10:54:57;;;;;;;8.27;7.33;;;;;;;4.73;65.66;152578.41;5041561;28;20438;-76
2022/04/04 10:57:41;;;;;;;9.97;7.50;;;;;;;4.72;68.10;152574.50;5039143;28;20446;-76
2022/04/04 11:00:17;;;;;;;8.57;7.77;;;;;;;4.77;67.45;152587.41;5040468;28;20435;-76
2022/04/04 11:02:53;;;;;;;9.43;8.43;;;;;;;4.66;67.53;152559.09;5041520;28;20470;-75
2022/04/04 11:08:32;;;;;;;9.90;8.77;;;;;;;4.66;68.45;152560.34;5042801;28;20476;-76
2022/04/04 11:11:19;;;;;;;8.30;7.40;;;;;;;4.70;67.57;152569.38;5039660;28;20438;-76
2022/04/04 11:13:55;;;;;;;8.27;7.47;;;;;;;4.73;65.36;152578.41;5028161;28;20436;-76
2022/04/04 11:17:33;;;;;;;8.20;7.40;;;;;;;4.76;63.97;152586.16;5034437;28;20447;-76
2022/04/04 11:20:33;;;;;;;8.53;7.60;;;;;;;4.57;68.25;152537.19;5044869;28;20451;-76
2022/04/04 11:23:10;;;;;;;9.70;7.53;;;;;;;4.54;67.69;152528.13;5044124;28;20442;-76
2022/04/04 11:25:51;;;;;;;7.13;6.43;;;;;;;4.47;67.35;152511.41;5022488;28;20442;-76
2022/04/04 11:28:31;;;;;;;9.00;7.33;;;;;;;4.55;70.08;152532.03;5031665;28;20438;-76
2022/04/04 11:31:09;;;;;;;9.03;7.40;;;;;;;4.56;67.78;152534.59;5030612;28;20964;-76
2022/04/04 11:33:47;;;;;;;8.20;7.27;;;;;;;4.66;67.71;152559.09;5036750;28;20466;-76
2022/04/04 11:36:27;;;;;;;8.60;7.70;;;;;;;4.68;70.45;152565.53;5031523;28;20442;-75
2022/04/04 11:39:07;;;;;;;7.43;6.70;;;;;;;4.69;71.13;152566.78;5028126;28;20439;-76
2022/04/04 11:41:51;;;;;;;8.27;7.17;;;;;;;4.76;67.40;152584.84;5032588;28;20869;-76
2022/04/04 11:44:27;;;;;;;8.43;7.23;;;;;;;4.84;67.19;152605.47;5025048;28;20442;-76
2022/04/04 11:47:11;;;;;;;7.60;6.80;;;;;;;4.75;70.04;152583.56;5030696;28;20541;-75
2022/04/04 11:49:47;;;;;;;7.90;6.80;;;;;;;4.70;71.40;152569.38;5031304;28;20447;-76
2022/04/04 11:52:26;;;;;;;8.37;6.80;;;;;;;4.71;69.08;152571.97;5028763;28;20555;-76
2022/04/04 11:55:07;;;;;;;7.93;6.70;;;;;;;4.62;68.56;152548.75;5034368;28;20434;-76
2022/04/04 11:57:46;;;;;;;7.13;6.43;;;;;;;4.61;68.69;152547.47;5012909;28;20804;-76
2022/04/04 12:00:25;;;;;;;7.43;6.20;;;;;;;4.73;66.73;152578.41;5014783;28;20433;-76
2022/04/04 12:03:03;;;;;;;7.20;6.30;;;;;;;4.78;67.15;152591.28;5016796;28;20443;-76
2022/04/04 12:05:39;;;;;;;6.27;5.60;;;;;;;4.86;68.85;152611.91;5018331;28;20837;-75
2022/04/04 12:08:18;;;;;;;7.70;6.90;;;;;;;4.80;71.09;152596.44;5044056;28;20453;-77
2022/04/04 12:10:53;;;;;;;7.93;6.57;;;;;;;4.87;68.37;152614.47;5051110;28;20446;-75
2022/04/04 12:13:29;;;;;;;9.03;6.57;;;;;;;4.93;68.99;152629.94;5055462;28;20517;-78